createdAt,value
2018-01-26T00:00:00.006Z,24.90
2018-01-26T00:02:28.562Z,22.92
2018-01-26T00:04:56.324Z,21.70
2018-01-26T00:07:24.154Z,21.90
2018-01-26T00:09:51.929Z,22.95
2018-01-26T00:12:19.708Z,25.30
2018-01-26T00:14:47.532Z,21.00
2018-01-26T00:17:15.300Z,24.12
2018-01-26T00:19:43.068Z,23.73
2018-01-26T00:22:10.885Z,24.75
2018-01-26T00:24:39.418Z,23.90
2018-01-26T00:27:07.180Z,20.15
2018-01-26T00:29:35.000Z,23.08
2018-01-26T00:32:03.527Z,22.85
2018-01-26T00:34:31.291Z,24.45
2018-01-26T00:36:59.111Z,26.25
2018-01-26T00:39:27.640Z,24.02
2018-01-26T00:41:55.417Z,21.55
2018-01-26T00:44:23.252Z,21.60
2018-01-26T00:46:51.024Z,22.83
2018-01-26T00:49:18.796Z,24.63
2018-01-26T00:51:46.891Z,20.52
2018-01-26T00:54:14.659Z,23.27
2018-01-26T00:56:43.188Z,23.70
2018-01-26T00:59:11.000Z,22.40
2018-01-26T01:01:39.532Z,20.02
2018-01-26T01:04:07.312Z,22.52
2018-01-26T01:06:35.136Z,23.73
2018-01-26T01:09:02.956Z,22.83
2018-01-26T01:11:30.731Z,20.17
2018-01-26T01:13:59.327Z,21.17
2018-01-26T01:16:27.146Z,23.58
2018-01-26T01:18:54.923Z,23.38
2018-01-26T01:21:22.748Z,20.60
2018-01-26T01:23:50.515Z,20.88
2018-01-26T01:26:18.284Z,19.20
2018-01-26T01:28:46.108Z,18.12
2018-01-26T01:31:13.875Z,20.77
2018-01-26T01:33:41.634Z,19.55
2018-01-26T01:36:09.488Z,17.30
2018-01-26T01:38:38.025Z,20.15
2018-01-26T01:41:05.800Z,22.08
2018-01-26T01:43:33.622Z,19.90
2018-01-26T01:46:01.400Z,20.52
2018-01-26T01:48:29.171Z,22.65
2018-01-26T01:50:56.990Z,22.23
2018-01-26T01:53:24.767Z,18.65
2018-01-26T01:55:52.527Z,18.10
2018-01-26T01:58:20.335Z,19.60
2018-01-26T02:00:48.112Z,21.48
2018-01-26T02:03:16.666Z,20.50
2018-01-26T02:05:44.495Z,24.65
2018-01-26T02:08:12.274Z,22.10
2018-01-26T02:10:40.051Z,21.12
2018-01-26T02:13:07.870Z,18.33
2018-01-26T02:15:35.642Z,22.13
2018-01-26T02:18:03.427Z,20.15
2018-01-26T02:20:31.267Z,22.90
2018-01-26T02:22:59.029Z,19.58
2018-01-26T02:25:26.794Z,19.35
2018-01-26T02:27:54.608Z,21.62
2018-01-26T02:30:22.374Z,16.67
2018-01-26T02:32:50.917Z,17.37
2018-01-26T02:35:18.735Z,18.33
2018-01-26T02:37:46.508Z,18.10
2018-01-26T02:40:14.276Z,19.77
2018-01-26T02:42:42.095Z,17.00
2018-01-26T02:45:10.658Z,17.35
2018-01-26T02:47:38.426Z,19.27
2018-01-26T02:50:06.246Z,18.83
2018-01-26T02:52:34.012Z,18.10
2018-01-26T02:55:01.790Z,16.92
2018-01-26T02:57:29.634Z,19.85
2018-01-26T02:59:57.412Z,18.17
2018-01-26T03:02:25.183Z,19.67
2018-01-26T03:04:53.000Z,17.90
2018-01-26T03:07:21.540Z,16.02
2018-01-26T03:09:49.301Z,18.17
2018-01-26T03:12:17.125Z,16.60
2018-01-26T03:14:44.893Z,17.33
2018-01-26T03:17:12.657Z,17.58
2018-01-26T03:19:40.477Z,17.05
2018-01-26T03:22:09.029Z,18.65
2018-01-26T03:24:36.795Z,15.10
2018-01-26T03:27:04.607Z,18.87
2018-01-26T03:29:32.368Z,18.10
2018-01-26T03:32:00.136Z,18.80
2018-01-26T03:34:27.963Z,19.02
2018-01-26T03:36:55.727Z,19.85
2018-01-26T03:39:24.267Z,16.50
2018-01-26T03:41:52.079Z,19.92
2018-01-26T03:44:20.611Z,19.20
2018-01-26T03:46:48.379Z,19.90
2018-01-26T03:49:16.216Z,22.83
2018-01-26T03:51:43.993Z,20.70
2018-01-26T03:54:11.770Z,25.75
2018-01-26T03:56:39.605Z,21.27
2018-01-26T03:59:07.367Z,21.40
2018-01-26T04:01:35.140Z,20.35
2018-01-26T04:04:02.991Z,23.75
2018-01-26T04:06:30.757Z,20.35
2018-01-26T04:08:58.544Z,25.67
2018-01-26T04:11:26.356Z,24.70
2018-01-26T04:13:54.118Z,24.77
2018-01-26T04:16:21.868Z,24.12
2018-01-26T04:18:50.457Z,23.92
2018-01-26T04:21:19.000Z,21.48
2018-01-26T04:23:46.756Z,23.45
2018-01-26T04:26:14.575Z,25.90
2018-01-26T04:28:42.351Z,26.52
2018-01-26T04:31:10.121Z,24.60
2018-01-26T04:33:37.936Z,26.62
2018-01-26T04:36:06.461Z,26.33
2018-01-26T04:38:34.242Z,26.00
2018-01-26T04:41:02.059Z,24.80
2018-01-26T04:43:29.819Z,27.00
2018-01-26T04:45:57.585Z,25.85
2018-01-26T04:48:25.403Z,24.95
2018-01-26T04:50:53.165Z,21.87
2018-01-26T04:53:20.931Z,22.17
2018-01-26T04:55:48.749Z,21.85
2018-01-26T04:58:16.511Z,22.13
2018-01-26T05:00:44.267Z,19.90
2018-01-26T05:03:12.083Z,23.98
2018-01-26T05:05:39.846Z,22.52
2018-01-26T05:08:08.395Z,22.65
2018-01-26T05:10:37.029Z,23.65
2018-01-26T05:13:05.598Z,29.25
2018-01-26T05:15:33.357Z,28.50
2018-01-26T05:18:01.184Z,26.80
2018-01-26T05:20:28.954Z,25.23
2018-01-26T05:22:56.722Z,24.65
2018-01-26T05:25:24.537Z,25.95
2018-01-26T05:27:52.303Z,26.33
2018-01-26T05:30:20.068Z,26.40
2018-01-26T05:32:47.884Z,26.17
2018-01-26T05:35:15.663Z,27.60
2018-01-26T05:37:44.189Z,28.10
2018-01-26T05:40:12.005Z,28.73
2018-01-26T05:42:40.539Z,28.17
2018-01-26T05:45:08.322Z,26.85
2018-01-26T05:47:36.140Z,26.50
2018-01-26T05:50:03.911Z,29.50
2018-01-26T05:52:31.674Z,29.00
2018-01-26T05:54:59.787Z,28.00
2018-01-26T05:57:27.546Z,26.08
2018-01-26T05:59:55.311Z,28.75
2018-01-26T06:02:23.125Z,28.35
2018-01-26T06:04:50.902Z,27.30
2018-01-26T06:07:18.671Z,31.12
2018-01-26T06:09:46.484Z,27.50
2018-01-26T06:12:15.002Z,26.25
2018-01-26T06:14:42.775Z,28.98
2018-01-26T06:17:11.414Z,28.20
2018-01-26T06:19:39.941Z,31.67
2018-01-26T06:22:07.706Z,29.87
2018-01-26T06:24:35.548Z,30.42
2018-01-26T06:27:03.332Z,34.80
2018-01-26T06:29:31.120Z,31.35
2018-01-26T06:31:58.960Z,31.25
2018-01-26T06:34:26.728Z,32.42
2018-01-26T06:36:54.498Z,30.00
2018-01-26T06:39:22.327Z,34.55
2018-01-26T06:41:50.092Z,29.45
2018-01-26T06:44:17.891Z,32.35
2018-01-26T06:46:45.712Z,32.95
2018-01-26T06:49:13.467Z,32.30
2018-01-26T06:51:41.268Z,30.90
2018-01-26T06:54:09.081Z,33.00
2018-01-26T06:56:36.834Z,31.20
2018-01-26T06:59:04.598Z,29.80
2018-01-26T07:01:32.423Z,30.00
2018-01-26T07:04:00.202Z,30.37
2018-01-26T07:06:28.738Z,30.33
2018-01-26T07:08:56.640Z,30.67
2018-01-26T07:11:25.187Z,33.67
2018-01-26T07:13:52.970Z,29.95
2018-01-26T07:16:20.802Z,33.70
2018-01-26T07:18:48.577Z,32.80
2018-01-26T07:21:16.342Z,35.33
2018-01-26T07:23:44.159Z,31.00
2018-01-26T07:26:11.927Z,30.50
2018-01-26T07:28:39.728Z,31.98
2018-01-26T07:31:08.322Z,34.05
2018-01-26T07:33:36.094Z,30.75
2018-01-26T07:36:03.875Z,32.00
2018-01-26T07:38:32.466Z,31.62
2018-01-26T07:41:00.234Z,36.92
2018-01-26T07:43:27.992Z,34.22
2018-01-26T07:45:55.807Z,32.55
2018-01-26T07:48:23.575Z,31.65
2018-01-26T07:50:51.339Z,33.13
2018-01-26T07:53:19.156Z,30.52
2018-01-26T07:55:46.912Z,33.05
2018-01-26T07:58:14.671Z,40.35
2018-01-26T08:00:42.500Z,43.60
2018-01-26T08:03:11.031Z,47.88
2018-01-26T08:05:38.827Z,40.35
2018-01-26T08:08:06.668Z,36.05
2018-01-26T08:10:34.428Z,34.00
2018-01-26T08:13:02.190Z,36.85
2018-01-26T08:15:29.998Z,38.08
2018-01-26T08:17:58.527Z,31.52
2018-01-26T08:20:26.299Z,35.20
2018-01-26T08:22:54.131Z,38.95
2018-01-26T08:25:21.896Z,37.47
2018-01-26T08:27:49.650Z,37.17
2018-01-26T08:30:17.483Z,35.67
2018-01-26T08:32:45.252Z,36.15
2018-01-26T08:35:13.799Z,38.90
2018-01-26T08:37:41.626Z,34.00
2018-01-26T08:40:09.413Z,32.00
2018-01-26T08:42:37.190Z,33.28
2018-01-26T08:45:05.011Z,38.65
2018-01-26T08:47:32.781Z,35.90
2018-01-26T08:50:00.552Z,30.88
2018-01-26T08:52:28.375Z,32.45
2018-01-26T08:54:56.920Z,38.20
2018-01-26T08:57:24.698Z,35.70
2018-01-26T08:59:52.525Z,36.15
2018-01-26T09:02:20.310Z,35.42
2018-01-26T09:04:48.111Z,32.80
2018-01-26T09:07:15.943Z,32.83
2018-01-26T09:09:43.719Z,33.05
2018-01-26T09:12:11.495Z,36.90
2018-01-26T09:14:40.080Z,33.92
2018-01-26T09:17:08.604Z,34.40
2018-01-26T09:19:36.383Z,34.85
2018-01-26T09:22:04.197Z,37.05
2018-01-26T09:24:31.988Z,31.92
2018-01-26T09:26:59.755Z,35.53
2018-01-26T09:29:27.592Z,29.83
2018-01-26T09:31:55.353Z,31.02
2018-01-26T09:34:23.117Z,33.30
2018-01-26T09:36:50.942Z,32.45
2018-01-26T09:42:01.651Z,35.85
2018-01-26T09:44:29.444Z,34.97
2018-01-26T09:46:57.219Z,36.17
2018-01-26T09:49:25.044Z,31.83
2018-01-26T09:51:52.815Z,35.33
2018-01-26T09:54:20.612Z,32.85
2018-01-26T09:56:48.470Z,30.50
2018-01-26T09:59:16.247Z,32.35
2018-01-26T10:01:44.021Z,33.47
2018-01-26T10:04:12.684Z,33.90
2018-01-26T10:06:40.493Z,32.50
2018-01-26T10:09:08.265Z,30.55
2018-01-26T10:11:36.079Z,33.50
2018-01-26T10:14:03.842Z,33.97
2018-01-26T10:16:31.612Z,31.75
2018-01-26T10:19:00.212Z,32.63
2018-01-26T10:21:28.757Z,28.33
2018-01-26T10:23:56.540Z,32.38
2018-01-26T10:26:25.137Z,30.17
2018-01-26T10:28:52.912Z,32.35
2018-01-26T10:31:20.682Z,33.67
2018-01-26T10:33:48.498Z,32.90
2018-01-26T10:36:16.271Z,35.05
2018-01-26T10:38:44.807Z,32.10
2018-01-26T10:41:12.651Z,34.92
2018-01-26T10:43:40.448Z,30.40
2018-01-26T10:46:08.239Z,36.38
2018-01-26T10:48:36.831Z,34.55
2018-01-26T10:51:05.378Z,32.15
2018-01-26T10:53:33.160Z,36.78
2018-01-26T10:56:01.758Z,32.60
2018-01-26T10:58:29.545Z,33.97
2018-01-26T11:00:57.320Z,34.20
2018-01-26T11:03:25.153Z,35.40
2018-01-26T11:05:52.924Z,31.40
2018-01-26T11:08:20.698Z,33.30
2018-01-26T11:10:48.520Z,31.12
2018-01-26T11:13:17.052Z,30.27
2018-01-26T11:15:45.706Z,31.02
2018-01-26T11:18:13.540Z,30.88
2018-01-26T11:20:42.079Z,28.83
2018-01-26T11:23:09.852Z,32.40
2018-01-26T11:25:38.433Z,28.00
2018-01-26T11:28:06.225Z,31.08
2018-01-26T11:30:34.756Z,32.67
2018-01-26T11:33:02.586Z,35.55
2018-01-26T11:35:30.351Z,33.03
2018-01-26T11:37:58.121Z,30.95
2018-01-26T11:40:25.948Z,31.83
2018-01-26T11:42:53.728Z,31.55
2018-01-26T11:45:22.274Z,35.08
2018-01-26T11:47:50.098Z,36.35
2018-01-26T11:50:17.861Z,33.15
2018-01-26T11:52:45.628Z,32.53
2018-01-26T11:55:13.456Z,31.00
2018-01-26T11:57:42.007Z,31.42
2018-01-26T12:00:09.806Z,32.55
2018-01-26T12:02:37.627Z,31.25
2018-01-26T12:05:05.393Z,32.92
2018-01-26T12:07:33.173Z,30.20
2018-01-26T12:10:01.071Z,30.75
2018-01-26T12:12:28.842Z,33.33
2018-01-26T12:14:56.608Z,33.92
2018-01-26T12:17:24.421Z,33.50
2018-01-26T12:19:52.195Z,37.35
2018-01-26T12:22:20.756Z,36.33
2018-01-26T12:24:48.579Z,34.83
2018-01-26T12:27:16.363Z,39.03
2018-01-26T12:29:44.154Z,34.92
2018-01-26T12:32:12.769Z,34.83
2018-01-26T12:34:40.586Z,35.13
2018-01-26T12:37:08.372Z,35.55
2018-01-26T12:39:36.969Z,33.45
2018-01-26T12:42:04.756Z,33.78
2018-01-26T12:44:32.523Z,33.72
2018-01-26T12:47:00.363Z,34.30
2018-01-26T12:49:28.151Z,33.65
2018-01-26T12:51:55.931Z,34.97
2018-01-26T12:54:23.770Z,34.22
2018-01-26T12:56:51.546Z,37.05
2018-01-26T12:59:20.107Z,35.35
2018-01-26T13:01:47.931Z,35.03
2018-01-26T13:04:16.470Z,34.05
2018-01-26T13:06:44.230Z,32.67
2018-01-26T13:09:12.070Z,32.55
2018-01-26T13:11:39.841Z,31.50
2018-01-26T13:14:07.615Z,32.42
2018-01-26T13:16:36.207Z,32.08
2018-01-26T13:19:04.011Z,31.23
2018-01-26T13:21:32.554Z,30.92
2018-01-26T13:24:00.397Z,33.13
2018-01-26T13:26:28.180Z,34.95
2018-01-26T13:28:55.986Z,33.30
2018-01-26T13:31:23.819Z,33.65
2018-01-26T13:33:51.592Z,34.85
2018-01-26T13:36:20.142Z,33.80
2018-01-26T13:38:48.024Z,33.28
2018-01-26T13:41:15.791Z,33.42
2018-01-26T13:43:44.335Z,35.40
2018-01-26T13:46:12.196Z,29.60
2018-01-26T13:48:39.986Z,31.23
2018-01-26T13:51:07.786Z,32.22
2018-01-26T13:53:35.615Z,30.60
2018-01-26T13:56:03.421Z,40.05
2018-01-26T13:58:31.278Z,30.95
2018-01-26T14:00:59.123Z,32.47
2018-01-26T14:03:27.675Z,32.25
2018-01-26T14:05:55.448Z,33.88
2018-01-26T14:08:23.289Z,34.10
2018-01-26T14:10:51.065Z,32.35
2018-01-26T14:13:18.877Z,34.47
2018-01-26T14:15:46.724Z,31.40
2018-01-26T14:18:15.276Z,34.58
2018-01-26T14:20:43.055Z,32.60
2018-01-26T14:23:11.635Z,31.73
2018-01-26T14:25:40.190Z,33.92
2018-01-26T14:28:07.960Z,34.10
2018-01-26T14:30:35.798Z,30.62
2018-01-26T14:33:04.337Z,33.58
2018-01-26T14:35:32.905Z,32.03
2018-01-26T14:38:01.506Z,31.40
2018-01-26T14:40:29.279Z,31.02
2018-01-26T14:42:57.061Z,34.95
2018-01-26T14:45:24.892Z,32.35
2018-01-26T14:47:52.659Z,32.63
2018-01-26T14:50:20.428Z,32.95
2018-01-26T14:52:48.690Z,33.17
2018-01-26T14:55:16.461Z,30.02
2018-01-26T14:57:47.298Z,30.70
2018-01-26T15:00:15.112Z,30.70
2018-01-26T15:02:42.878Z,32.22
2018-01-26T15:05:15.382Z,34.15
2018-01-26T15:07:48.598Z,33.55
2018-01-26T15:10:17.777Z,33.13
2018-01-26T15:12:50.933Z,33.70
2018-01-26T15:15:22.754Z,37.25
2018-01-26T15:17:55.676Z,34.33
2018-01-26T15:20:24.250Z,33.30
2018-01-26T15:22:58.562Z,35.70
2018-01-26T15:25:26.379Z,33.88
2018-01-26T15:27:54.704Z,34.72
2018-01-26T15:30:30.241Z,36.08
2018-01-26T15:32:58.743Z,39.55
2018-01-26T15:35:37.064Z,37.63
2018-01-26T15:38:08.068Z,40.35
2018-01-26T15:40:36.551Z,39.30
2018-01-26T15:43:04.936Z,39.08
2018-01-26T15:45:33.455Z,39.15
2018-01-26T15:48:04.260Z,39.92
2018-01-26T15:50:32.859Z,43.13
2018-01-26T15:53:03.359Z,42.38
2018-01-26T15:55:32.757Z,42.42
2018-01-26T15:58:01.295Z,46.90
2018-01-26T16:00:29.261Z,43.35
2018-01-26T16:03:05.023Z,43.20
2018-01-26T16:05:43.207Z,42.15
2018-01-26T16:08:20.206Z,44.05
2018-01-26T16:11:00.885Z,45.75
2018-01-26T16:13:28.661Z,45.53
2018-01-26T16:16:05.126Z,41.37
2018-01-26T16:18:33.641Z,42.67
2018-01-26T16:21:03.203Z,44.10
2018-01-26T16:23:31.032Z,46.42
2018-01-26T16:25:58.940Z,45.45
2018-01-26T16:28:27.470Z,53.55
2018-01-26T16:30:55.291Z,49.63
2018-01-26T16:33:23.065Z,51.00
2018-01-26T16:35:50.899Z,49.17
2018-01-26T16:38:18.707Z,55.85
2018-01-26T16:40:46.488Z,55.42
2018-01-26T16:43:14.255Z,57.03
2018-01-26T16:45:44.336Z,65.35
2018-01-26T16:48:14.499Z,69.07
2018-01-26T16:50:45.248Z,63.35
2018-01-26T16:53:18.101Z,63.80
2018-01-26T16:55:50.944Z,62.50
2018-01-26T16:58:22.010Z,63.30
2018-01-26T17:00:52.712Z,61.80
2018-01-26T17:03:22.959Z,65.53
2018-01-26T17:05:54.434Z,63.20
2018-01-26T17:08:29.352Z,75.07
2018-01-26T17:11:03.846Z,64.20
2018-01-26T17:13:36.924Z,66.75
2018-01-26T17:16:04.741Z,65.65
2018-01-26T17:18:36.037Z,68.15
2018-01-26T17:21:08.780Z,67.55
2018-01-26T17:23:41.042Z,67.72
2018-01-26T17:26:14.672Z,77.55
2018-01-26T17:28:46.969Z,72.30
2018-01-26T17:31:14.769Z,74.47
2018-01-26T17:33:48.742Z,81.10
2018-01-26T17:36:19.804Z,77.03
2018-01-26T17:38:52.601Z,77.62
2018-01-26T17:41:25.303Z,78.70
2018-01-26T17:43:53.528Z,76.00
2018-01-26T17:46:30.396Z,73.40
2018-01-26T17:49:02.137Z,80.40
2018-01-26T17:51:35.586Z,76.43
2018-01-26T17:54:05.097Z,87.78
2018-01-26T17:56:40.379Z,96.12
2018-01-26T17:59:16.720Z,106.45
2018-01-26T18:01:46.232Z,104.35
2018-01-26T18:04:24.558Z,91.93
2018-01-26T18:07:03.544Z,80.62
2018-01-26T18:09:42.148Z,93.55
2018-01-26T18:12:15.287Z,91.05
2018-01-26T18:14:52.526Z,90.53
2018-01-26T18:17:31.030Z,88.57
2018-01-26T18:20:03.237Z,88.70
2018-01-26T18:22:35.030Z,87.82
2018-01-26T18:25:10.263Z,81.50
2018-01-26T18:27:43.181Z,83.25
2018-01-26T18:30:12.646Z,81.20
2018-01-26T18:32:46.766Z,81.15
2018-01-26T18:35:18.545Z,81.15
2018-01-26T18:37:53.985Z,74.28
2018-01-26T18:40:27.638Z,72.25
2018-01-26T18:43:00.046Z,65.50
2018-01-26T18:45:33.256Z,65.80
2018-01-26T18:48:07.006Z,62.47
2018-01-26T18:50:40.039Z,63.63
2018-01-26T18:53:10.868Z,64.95
2018-01-26T18:55:41.506Z,61.60
2018-01-26T18:58:14.628Z,60.08
2018-01-26T19:00:46.461Z,60.35
2018-01-26T19:03:19.803Z,56.85
2018-01-26T19:05:55.330Z,56.33
2018-01-26T19:08:26.875Z,57.80
2018-01-26T19:10:58.865Z,56.58
2018-01-26T19:13:27.451Z,57.80
2018-01-26T19:15:55.971Z,55.33
2018-01-26T19:18:23.729Z,52.80
2018-01-26T19:20:51.538Z,54.92
2018-01-26T19:23:19.330Z,52.55
2018-01-26T19:25:47.091Z,53.33
2018-01-26T19:28:14.895Z,54.45
2018-01-26T19:30:42.654Z,52.05
2018-01-26T19:33:10.412Z,53.13
2018-01-26T19:35:38.232Z,52.28
2018-01-26T19:38:06.745Z,50.70
2018-01-26T19:40:34.494Z,61.00
2018-01-26T19:43:02.309Z,54.88
2018-01-26T19:45:30.071Z,55.17
2018-01-26T19:47:57.830Z,54.65
2018-01-26T19:50:25.675Z,59.88
2018-01-26T19:52:54.247Z,54.67
2018-01-26T19:55:22.061Z,62.78
2018-01-26T19:57:50.633Z,59.88
2018-01-26T20:00:18.391Z,57.60
2018-01-26T20:02:46.151Z,61.20
2018-01-26T20:05:31.546Z,54.50
2018-01-26T20:08:00.883Z,55.88
2018-01-26T20:10:28.641Z,53.75
2018-01-26T20:13:02.057Z,56.78
2018-01-26T20:15:29.810Z,54.70
2018-01-26T20:17:57.568Z,55.15
2018-01-26T20:20:25.376Z,52.53
2018-01-26T20:22:53.895Z,51.33
2018-01-26T20:25:21.654Z,53.03
2018-01-26T20:27:49.456Z,52.58
2018-01-26T20:30:17.301Z,55.72
2018-01-26T20:32:45.074Z,52.70
2018-01-26T20:35:12.904Z,55.58
2018-01-26T20:37:40.686Z,53.42
2018-01-26T20:40:08.504Z,55.53
2018-01-26T20:42:37.111Z,57.35
2018-01-26T20:45:05.012Z,58.72
2018-01-26T20:47:32.773Z,53.67
2018-01-26T20:50:00.579Z,53.85
2018-01-26T20:52:29.127Z,55.85
2018-01-26T20:54:56.894Z,55.38
2018-01-26T20:57:24.751Z,53.35
2018-01-26T20:59:52.496Z,55.25
2018-01-26T21:02:20.955Z,50.88
2018-01-26T21:04:48.790Z,53.83
2018-01-26T21:07:17.315Z,52.03
2018-01-26T21:09:45.070Z,51.45
2018-01-26T21:12:12.886Z,52.60
2018-01-26T21:14:41.413Z,56.78
2018-01-26T21:17:09.939Z,55.03
2018-01-26T21:19:38.544Z,51.53
2018-01-26T21:22:06.307Z,50.60
2018-01-26T21:24:34.095Z,47.40
2018-01-26T21:27:01.901Z,55.53
2018-01-26T21:29:30.426Z,53.67
2018-01-26T21:31:58.200Z,55.50
2018-01-26T21:34:26.059Z,46.65
2018-01-26T21:36:53.850Z,47.22
2018-01-26T21:39:21.641Z,46.13
2018-01-26T21:41:50.241Z,44.50
2018-01-26T21:44:17.987Z,41.10
2018-01-26T21:46:46.519Z,44.50
2018-01-26T21:49:14.331Z,41.80
2018-01-26T21:51:42.859Z,43.95
2018-01-26T21:54:10.617Z,42.22
2018-01-26T21:56:38.419Z,39.45
2018-01-26T21:59:06.289Z,42.17
2018-01-26T22:01:34.810Z,41.97
2018-01-26T22:04:02.651Z,43.17
2018-01-26T22:06:36.065Z,40.88
2018-01-26T22:09:03.873Z,41.30
2018-01-26T22:11:31.685Z,46.83
2018-01-26T22:13:59.472Z,41.75
2018-01-26T22:16:27.321Z,47.13
2018-01-26T22:18:55.079Z,42.40
2018-01-26T22:21:22.832Z,42.03
2018-01-26T22:23:50.638Z,42.08
2018-01-26T22:26:18.388Z,43.40
2018-01-26T22:28:46.135Z,45.00
2018-01-26T22:31:13.959Z,47.35
2018-01-26T22:33:42.486Z,40.88
2018-01-26T22:36:10.243Z,44.25
2018-01-26T22:38:38.039Z,41.92
2018-01-26T22:41:05.794Z,43.78
2018-01-26T22:43:33.564Z,44.42
2018-01-26T22:46:01.395Z,45.58
2018-01-26T22:48:29.142Z,46.00
2018-01-26T22:50:56.894Z,49.50
2018-01-26T22:53:24.717Z,44.45
2018-01-26T22:55:52.473Z,46.08
2018-01-26T22:58:20.235Z,47.38
2018-01-26T23:00:48.042Z,45.15
2018-01-26T23:03:15.795Z,48.17
2018-01-26T23:05:43.552Z,43.53
2018-01-26T23:08:11.366Z,44.50
2018-01-26T23:10:39.114Z,44.60
2018-01-26T23:13:06.881Z,43.47
2018-01-26T23:15:34.684Z,46.35
2018-01-26T23:18:03.194Z,49.25
2018-01-26T23:20:30.947Z,47.78
2018-01-26T23:22:58.755Z,46.75
2018-01-26T23:25:26.513Z,50.53
2018-01-26T23:27:54.262Z,46.75
2018-01-26T23:30:22.070Z,47.35
2018-01-26T23:32:50.586Z,46.20
2018-01-26T23:35:18.337Z,47.85
2018-01-26T23:37:46.144Z,48.05
2018-01-26T23:40:13.894Z,48.63
2018-01-26T23:42:41.663Z,50.97
2018-01-26T23:45:09.475Z,44.45
2018-01-26T23:47:37.987Z,48.75
2018-01-26T23:50:05.738Z,46.60
2018-01-26T23:55:16.222Z,50.22
2018-01-26T23:57:44.024Z,49.65
